sensor_id;sensor_type;location;lat;lon;timestamp;temperature;humidity
216;HTU21D;70668;48.81286795;9.14184224;2024-02-23T00:01:59;6.45;94.52
216;HTU21D;70668;48.81286795;9.14184224;2024-02-23T00:04:27;6.46;93.63
216;HTU21D;70668;48.81286795;9.14184224;2024-02-23T00:06:58;6.50;94.01
216;HTU21D;70668;48.81286795;9.14184224;2024-02-23T00:09:28;6.44;94.00
216;HTU21D;70668;48.81286795;9.14184224;2024-02-23T00:11:56;6.50;93.15
216;HTU21D;70668;48.81286795;9.14184224;2024-02-23T00:14:25;6.45;95.49
216;HTU21D;70668;48.81286795;9.14184224;2024-02-23T00:16:55;6.52;92.13
216;HTU21D;70668;48.81286795;9.14184224;2024-02-23T00:19:24;6.40;92.54
216;HTU21D;70668;48.81286795;9.14184224;2024-02-23T00:21:53;6.51;92.53
216;HTU21D;70668;48.81286795;9.14184224;2024-02-23T00:24:24;6.41;92.75
216;HTU21D;70668;48.81286795;9.14184224;2024-02-23T00:26:52;6.59;94.70
216;HTU21D;70668;48.81286795;9.14184224;2024-02-23T00:29:21;6.56;92.98
216;HTU21D;70668;48.81286795;9.14184224;2024-02-23T00:31:49;6.72;91.76
216;HTU21D;70668;48.81286795;9.14184224;2024-02-23T00:34:18;6.45;91.09
216;HTU21D;70668;48.81286795;9.14184224;2024-02-23T00:36:46;6.56;92.44
216;HTU21D;70668;48.81286795;9.14184224;2024-02-23T00:39:15;6.66;92.95
216;HTU21D;70668;48.81286795;9.14184224;2024-02-23T00:41:46;6.76;91.27
216;HTU21D;70668;48.81286795;9.14184224;2024-02-23T00:44:14;6.56;91.03
216;HTU21D;70668;48.81286795;9.14184224;2024-02-23T00:46:43;6.73;91.44
216;HTU21D;70668;48.81286795;9.14184224;2024-02-23T00:49:11;6.68;91.11
216;HTU21D;70668;48.81286795;9.14184224;2024-02-23T00:51:40;6.81;90.73
216;HTU21D;70668;48.81286795;9.14184224;2024-02-23T00:54:09;6.87;88.88
216;HTU21D;70668;48.81286795;9.14184224;2024-02-23T00:56:37;6.71;90.43
216;HTU21D;70668;48.81286795;9.14184224;2024-02-23T00:59:08;6.75;91.46
216;HTU21D;70668;48.81286795;9.14184224;2024-02-23T01:01:34;6.57;92.23
216;HTU21D;70668;48.81286795;9.14184224;2024-02-23T01:04:03;6.72;93.58
216;HTU21D;70668;48.81286795;9.14184224;2024-02-23T01:06:31;6.66;91.80
216;HTU21D;70668;48.81286795;9.14184224;2024-02-23T01:09:00;6.69;91.23
216;HTU21D;70668;48.81286795;9.14184224;2024-02-23T01:11:29;6.55;91.22
216;HTU21D;70668;48.81286795;9.14184224;2024-02-23T01:13:58;6.59;93.07
216;HTU21D;70668;48.81286795;9.14184224;2024-02-23T01:16:29;6.64;90.68
216;HTU21D;70668;48.81286795;9.14184224;2024-02-23T01:18:58;6.52;90.85
216;HTU21D;70668;48.81286795;9.14184224;2024-02-23T01:21:28;6.61;91.78
216;HTU21D;70668;48.81286795;9.14184224;2024-02-23T01:23:57;6.76;94.86
216;HTU21D;70668;48.81286795;9.14184224;2024-02-23T01:26:26;6.79;93.49
216;HTU21D;70668;48.81286795;9.14184224;2024-02-23T01:28:54;6.64;94.31
216;HTU21D;70668;48.81286795;9.14184224;2024-02-23T01:31:23;6.67;92.14
216;HTU21D;70668;48.81286795;9.14184224;2024-02-23T01:33:54;6.59;93.95
216;HTU21D;70668;48.81286795;9.14184224;2024-02-23T01:36:22;6.48;93.71
216;HTU21D;70668;48.81286795;9.14184224;2024-02-23T01:38:51;6.43;93.72
216;HTU21D;70668;48.81286795;9.14184224;2024-02-23T01:41:20;6.50;94.26
216;HTU21D;70668;48.81286795;9.14184224;2024-02-23T01:43:49;6.51;93.45
216;HTU21D;70668;48.81286795;9.14184224;2024-02-23T01:46:17;6.56;94.09
216;HTU21D;70668;48.81286795;9.14184224;2024-02-23T01:48:46;6.45;95.39
216;HTU21D;70668;48.81286795;9.14184224;2024-02-23T01:51:17;6.49;94.90
216;HTU21D;70668;48.81286795;9.14184224;2024-02-23T01:53:46;6.41;93.25
216;HTU21D;70668;48.81286795;9.14184224;2024-02-23T01:56:15;6.64;94.79
216;HTU21D;70668;48.81286795;9.14184224;2024-02-23T01:58:46;6.65;95.18
216;HTU21D;70668;48.81286795;9.14184224;2024-02-23T02:01:15;6.75;94.41
216;HTU21D;70668;48.81286795;9.14184224;2024-02-23T02:03:43;6.75;95.46
216;HTU21D;70668;48.81286795;9.14184224;2024-02-23T02:06:12;6.67;94.52
216;HTU21D;70668;48.81286795;9.14184224;2024-02-23T02:08:43;6.58;94.71
216;HTU21D;70668;48.81286795;9.14184224;2024-02-23T02:11:12;6.57;92.67
216;HTU21D;70668;48.81286795;9.14184224;2024-02-23T02:13:40;6.71;94.93
216;HTU21D;70668;48.81286795;9.14184224;2024-02-23T02:16:09;6.75;93.88
216;HTU21D;70668;48.81286795;9.14184224;2024-02-23T02:18:37;6.66;93.43
216;HTU21D;70668;48.81286795;9.14184224;2024-02-23T02:21:04;6.67;93.37
216;HTU21D;70668;48.81286795;9.14184224;2024-02-23T02:23:32;6.60;94.34
216;HTU21D;70668;48.81286795;9.14184224;2024-02-23T02:26:05;6.68;94.23
216;HTU21D;70668;48.81286795;9.14184224;2024-02-23T02:28:34;6.74;94.43
216;HTU21D;70668;48.81286795;9.14184224;2024-02-23T02:31:03;6.73;92.64
216;HTU21D;70668;48.81286795;9.14184224;2024-02-23T02:33:32;6.68;93.90
216;HTU21D;70668;48.81286795;9.14184224;2024-02-23T02:36:00;6.63;95.97
216;HTU21D;70668;48.81286795;9.14184224;2024-02-23T02:38:29;6.90;96.17
216;HTU21D;70668;48.81286795;9.14184224;2024-02-23T02:40:58;6.74;96.81
216;HTU21D;70668;48.81286795;9.14184224;2024-02-23T02:43:30;6.60;97.34
216;HTU21D;70668;48.81286795;9.14184224;2024-02-23T02:45:59;6.67;91.94
216;HTU21D;70668;48.81286795;9.14184224;2024-02-23T02:48:27;6.80;93.58
216;HTU21D;70668;48.81286795;9.14184224;2024-02-23T02:50:56;6.56;91.18
216;HTU21D;70668;48.81286795;9.14184224;2024-02-23T02:53:25;6.64;91.98
216;HTU21D;70668;48.81286795;9.14184224;2024-02-23T02:55:53;6.73;93.70
216;HTU21D;70668;48.81286795;9.14184224;2024-02-23T02:58:22;6.57;88.89
216;HTU21D;70668;48.81286795;9.14184224;2024-02-23T03:00:53;6.51;89.28
216;HTU21D;70668;48.81286795;9.14184224;2024-02-23T03:03:21;6.56;88.61
216;HTU21D;70668;48.81286795;9.14184224;2024-02-23T03:05:50;6.40;88.86
216;HTU21D;70668;48.81286795;9.14184224;2024-02-23T03:08:19;6.58;92.40
216;HTU21D;70668;48.81286795;9.14184224;2024-02-23T03:10:47;6.60;89.12
216;HTU21D;70668;48.81286795;9.14184224;2024-02-23T03:13:16;6.65;87.05
216;HTU21D;70668;48.81286795;9.14184224;2024-02-23T03:15:44;6.46;88.27
216;HTU21D;70668;48.81286795;9.14184224;2024-02-23T03:18:15;6.58;90.11
216;HTU21D;70668;48.81286795;9.14184224;2024-02-23T03:20:44;6.42;90.61
216;HTU21D;70668;48.81286795;9.14184224;2024-02-23T03:23:18;6.46;88.92
216;HTU21D;70668;48.81286795;9.14184224;2024-02-23T03:25:46;6.44;89.72
216;HTU21D;70668;48.81286795;9.14184224;2024-02-23T03:28:15;6.46;87.32
216;HTU21D;70668;48.81286795;9.14184224;2024-02-23T03:30:43;6.52;85.44
216;HTU21D;70668;48.81286795;9.14184224;2024-02-23T03:33:14;6.51;86.87
216;HTU21D;70668;48.81286795;9.14184224;2024-02-23T03:35:43;6.59;89.08
216;HTU21D;70668;48.81286795;9.14184224;2024-02-23T03:38:11;6.39;83.49
216;HTU21D;70668;48.81286795;9.14184224;2024-02-23T03:40:41;6.42;85.89
216;HTU21D;70668;48.81286795;9.14184224;2024-02-23T03:43:09;6.45;86.73
216;HTU21D;70668;48.81286795;9.14184224;2024-02-23T03:45:38;6.43;89.87
216;HTU21D;70668;48.81286795;9.14184224;2024-02-23T03:48:07;6.49;86.74
216;HTU21D;70668;48.81286795;9.14184224;2024-02-23T03:50:38;6.45;85.49
216;HTU21D;70668;48.81286795;9.14184224;2024-02-23T03:53:06;6.42;84.38
216;HTU21D;70668;48.81286795;9.14184224;2024-02-23T03:55:35;6.50;83.23
216;HTU21D;70668;48.81286795;9.14184224;2024-02-23T03:58:04;6.45;86.10
216;HTU21D;70668;48.81286795;9.14184224;2024-02-23T04:00:32;6.29;83.35
216;HTU21D;70668;48.81286795;9.14184224;2024-02-23T04:03:00;6.25;83.87
216;HTU21D;70668;48.81286795;9.14184224;2024-02-23T04:05:29;6.29;81.62
216;HTU21D;70668;48.81286795;9.14184224;2024-02-23T04:08:00;6.31;82.20
216;HTU21D;70668;48.81286795;9.14184224;2024-02-23T04:10:29;6.20;81.23
216;HTU21D;70668;48.81286795;9.14184224;2024-02-23T04:12:58;5.99;82.10
216;HTU21D;70668;48.81286795;9.14184224;2024-02-23T04:15:26;6.27;83.59
216;HTU21D;70668;48.81286795;9.14184224;2024-02-23T04:17:55;6.25;83.43
216;HTU21D;70668;48.81286795;9.14184224;2024-02-23T04:20:23;6.17;83.09
216;HTU21D;70668;48.81286795;9.14184224;2024-02-23T04:22:52;6.21;83.57
216;HTU21D;70668;48.81286795;9.14184224;2024-02-23T04:25:26;6.13;85.68
216;HTU21D;70668;48.81286795;9.14184224;2024-02-23T04:27:54;6.15;87.61
216;HTU21D;70668;48.81286795;9.14184224;2024-02-23T04:30:23;6.08;84.81
216;HTU21D;70668;48.81286795;9.14184224;2024-02-23T04:32:51;6.11;87.27
216;HTU21D;70668;48.81286795;9.14184224;2024-02-23T04:35:20;6.11;88.97
216;HTU21D;70668;48.81286795;9.14184224;2024-02-23T04:37:48;6.06;85.38
216;HTU21D;70668;48.81286795;9.14184224;2024-02-23T04:40:17;5.79;89.70
216;HTU21D;70668;48.81286795;9.14184224;2024-02-23T04:42:48;5.78;89.34
216;HTU21D;70668;48.81286795;9.14184224;2024-02-23T04:45:17;5.76;89.80
216;HTU21D;70668;48.81286795;9.14184224;2024-02-23T04:47:46;5.72;92.73
216;HTU21D;70668;48.81286795;9.14184224;2024-02-23T04:50:15;5.66;92.73
216;HTU21D;70668;48.81286795;9.14184224;2024-02-23T04:52:43;5.85;84.23
216;HTU21D;70668;48.81286795;9.14184224;2024-02-23T04:55:12;5.77;86.28
216;HTU21D;70668;48.81286795;9.14184224;2024-02-23T04:57:40;5.97;84.74
216;HTU21D;70668;48.81286795;9.14184224;2024-02-23T05:00:12;5.83;87.41
216;HTU21D;70668;48.81286795;9.14184224;2024-02-23T05:02:41;5.64;89.37
216;HTU21D;70668;48.81286795;9.14184224;2024-02-23T05:05:09;5.35;90.81
216;HTU21D;70668;48.81286795;9.14184224;2024-02-23T05:07:38;5.52;90.52
216;HTU21D;70668;48.81286795;9.14184224;2024-02-23T05:10:07;5.45;90.58
216;HTU21D;70668;48.81286795;9.14184224;2024-02-23T05:12:36;5.41;91.69
216;HTU21D;70668;48.81286795;9.14184224;2024-02-23T05:15:05;5.27;93.67
216;HTU21D;70668;48.81286795;9.14184224;2024-02-23T05:17:36;5.52;92.68
216;HTU21D;70668;48.81286795;9.14184224;2024-02-23T05:20:06;5.41;90.57
216;HTU21D;70668;48.81286795;9.14184224;2024-02-23T05:22:35;5.56;88.06
216;HTU21D;70668;48.81286795;9.14184224;2024-02-23T05:25:05;5.36;89.18
216;HTU21D;70668;48.81286795;9.14184224;2024-02-23T05:27:33;5.26;89.25
216;HTU21D;70668;48.81286795;9.14184224;2024-02-23T05:30:03;5.25;88.89
216;HTU21D;70668;48.81286795;9.14184224;2024-02-23T05:32:32;5.27;88.00
216;HTU21D;70668;48.81286795;9.14184224;2024-02-23T05:35:04;5.40;87.29
216;HTU21D;70668;48.81286795;9.14184224;2024-02-23T05:37:32;5.43;89.28
216;HTU21D;70668;48.81286795;9.14184224;2024-02-23T05:40:01;5.38;88.90
216;HTU21D;70668;48.81286795;9.14184224;2024-02-23T05:42:32;5.26;89.78
216;HTU21D;70668;48.81286795;9.14184224;2024-02-23T05:45:00;5.34;89.39
216;HTU21D;70668;48.81286795;9.14184224;2024-02-23T05:47:30;5.24;89.07
216;HTU21D;70668;48.81286795;9.14184224;2024-02-23T05:49:58;5.26;89.89
216;HTU21D;70668;48.81286795;9.14184224;2024-02-23T05:52:31;5.34;87.48
216;HTU21D;70668;48.81286795;9.14184224;2024-02-23T05:55:00;5.27;88.89
216;HTU21D;70668;48.81286795;9.14184224;2024-02-23T05:57:29;5.11;88.77
216;HTU21D;70668;48.81286795;9.14184224;2024-02-23T05:59:57;5.19;89.25
216;HTU21D;70668;48.81286795;9.14184224;2024-02-23T06:02:26;5.23;88.28
216;HTU21D;70668;48.81286795;9.14184224;2024-02-23T06:04:54;5.18;87.67
216;HTU21D;70668;48.81286795;9.14184224;2024-02-23T06:07:23;5.24;90.11
216;HTU21D;70668;48.81286795;9.14184224;2024-02-23T06:09:57;5.13;90.50
216;HTU21D;70668;48.81286795;9.14184224;2024-02-23T06:12:26;5.24;88.63
216;HTU21D;70668;48.81286795;9.14184224;2024-02-23T06:14:55;5.08;91.57
216;HTU21D;70668;48.81286795;9.14184224;2024-02-23T06:17:23;5.17;89.88
216;HTU21D;70668;48.81286795;9.14184224;2024-02-23T06:19:52;5.15;89.59
216;HTU21D;70668;48.81286795;9.14184224;2024-02-23T06:22:23;5.25;89.10
216;HTU21D;70668;48.81286795;9.14184224;2024-02-23T06:24:51;5.20;90.71
216;HTU21D;70668;48.81286795;9.14184224;2024-02-23T06:27:22;5.20;90.34
216;HTU21D;70668;48.81286795;9.14184224;2024-02-23T06:29:53;5.25;89.59
216;HTU21D;70668;48.81286795;9.14184224;2024-02-23T06:32:21;4.97;91.47
216;HTU21D;70668;48.81286795;9.14184224;2024-02-23T06:34:50;4.92;92.19
216;HTU21D;70668;48.81286795;9.14184224;2024-02-23T06:37:18;4.97;92.24
216;HTU21D;70668;48.81286795;9.14184224;2024-02-23T06:39:47;4.65;92.98
216;HTU21D;70668;48.81286795;9.14184224;2024-02-23T06:42:22;4.73;92.78
216;HTU21D;70668;48.81286795;9.14184224;2024-02-23T06:44:51;4.73;93.14
216;HTU21D;70668;48.81286795;9.14184224;2024-02-23T06:47:20;4.63;93.08
216;HTU21D;70668;48.81286795;9.14184224;2024-02-23T06:49:50;4.95;93.85
216;HTU21D;70668;48.81286795;9.14184224;2024-02-23T06:52:18;4.98;92.76
216;HTU21D;70668;48.81286795;9.14184224;2024-02-23T06:54:48;4.84;93.76
216;HTU21D;70668;48.81286795;9.14184224;2024-02-23T06:57:17;4.94;94.14
216;HTU21D;70668;48.81286795;9.14184224;2024-02-23T06:59:48;5.00;94.51
216;HTU21D;70668;48.81286795;9.14184224;2024-02-23T07:02:16;5.13;94.98
216;HTU21D;70668;48.81286795;9.14184224;2024-02-23T07:04:45;5.24;94.70
216;HTU21D;70668;48.81286795;9.14184224;2024-02-23T07:07:14;5.15;96.40
216;HTU21D;70668;48.81286795;9.14184224;2024-02-23T07:09:42;5.41;94.12
216;HTU21D;70668;48.81286795;9.14184224;2024-02-23T07:12:11;5.45;93.64
216;HTU21D;70668;48.81286795;9.14184224;2024-02-23T07:14:39;5.24;94.26
216;HTU21D;70668;48.81286795;9.14184224;2024-02-23T07:17:11;5.46;93.21
216;HTU21D;70668;48.81286795;9.14184224;2024-02-23T07:19:40;5.47;94.57
216;HTU21D;70668;48.81286795;9.14184224;2024-02-23T07:22:08;5.49;94.59
216;HTU21D;70668;48.81286795;9.14184224;2024-02-23T07:24:39;5.39;93.70
216;HTU21D;70668;48.81286795;9.14184224;2024-02-23T07:27:08;5.49;94.93
216;HTU21D;70668;48.81286795;9.14184224;2024-02-23T07:29:36;5.54;94.26
216;HTU21D;70668;48.81286795;9.14184224;2024-02-23T07:32:06;5.54;92.98
216;HTU21D;70668;48.81286795;9.14184224;2024-02-23T07:34:37;5.53;94.34
216;HTU21D;70668;48.81286795;9.14184224;2024-02-23T07:37:05;5.67;93.36
216;HTU21D;70668;48.81286795;9.14184224;2024-02-23T07:39:34;5.68;93.16
216;HTU21D;70668;48.81286795;9.14184224;2024-02-23T07:42:03;5.69;92.53
216;HTU21D;70668;48.81286795;9.14184224;2024-02-23T07:44:33;5.70;91.19
216;HTU21D;70668;48.81286795;9.14184224;2024-02-23T07:47:03;5.68;94.13
216;HTU21D;70668;48.81286795;9.14184224;2024-02-23T07:49:32;5.65;93.23
216;HTU21D;70668;48.81286795;9.14184224;2024-02-23T07:52:04;5.78;91.02
216;HTU21D;70668;48.81286795;9.14184224;2024-02-23T07:54:33;5.89;92.87
216;HTU21D;70668;48.81286795;9.14184224;2024-02-23T07:57:01;5.95;92.78
216;HTU21D;70668;48.81286795;9.14184224;2024-02-23T07:59:30;5.95;92.40
216;HTU21D;70668;48.81286795;9.14184224;2024-02-23T08:01:59;5.98;91.95
216;HTU21D;70668;48.81286795;9.14184224;2024-02-23T08:04:28;5.94;92.01
216;HTU21D;70668;48.81286795;9.14184224;2024-02-23T08:06:56;5.97;92.21
216;HTU21D;70668;48.81286795;9.14184224;2024-02-23T08:09:27;6.04;91.91
216;HTU21D;70668;48.81286795;9.14184224;2024-02-23T08:11:56;5.95;93.33
216;HTU21D;70668;48.81286795;9.14184224;2024-02-23T08:14:24;5.90;92.07
216;HTU21D;70668;48.81286795;9.14184224;2024-02-23T08:16:53;5.89;93.19
216;HTU21D;70668;48.81286795;9.14184224;2024-02-23T08:19:21;6.12;90.95
216;HTU21D;70668;48.81286795;9.14184224;2024-02-23T08:21:50;5.97;91.85
216;HTU21D;70668;48.81286795;9.14184224;2024-02-23T08:24:18;5.85;92.34
216;HTU21D;70668;48.81286795;9.14184224;2024-02-23T08:26:50;5.93;90.44
216;HTU21D;70668;48.81286795;9.14184224;2024-02-23T08:29:19;5.94;88.58
216;HTU21D;70668;48.81286795;9.14184224;2024-02-23T08:31:48;6.01;90.43
216;HTU21D;70668;48.81286795;9.14184224;2024-02-23T08:34:16;6.07;89.63
216;HTU21D;70668;48.81286795;9.14184224;2024-02-23T08:36:45;5.94;90.73
216;HTU21D;70668;48.81286795;9.14184224;2024-02-23T08:39:14;6.06;91.31
216;HTU21D;70668;48.81286795;9.14184224;2024-02-23T08:41:42;6.02;90.30
216;HTU21D;70668;48.81286795;9.14184224;2024-02-23T08:44:13;6.01;90.78
216;HTU21D;70668;48.81286795;9.14184224;2024-02-23T08:46:42;5.99;90.92
216;HTU21D;70668;48.81286795;9.14184224;2024-02-23T08:49:10;5.80;89.25
216;HTU21D;70668;48.81286795;9.14184224;2024-02-23T08:51:39;5.97;90.04
216;HTU21D;70668;48.81286795;9.14184224;2024-02-23T08:54:07;5.99;90.25
216;HTU21D;70668;48.81286795;9.14184224;2024-02-23T08:56:37;6.26;90.24
216;HTU21D;70668;48.81286795;9.14184224;2024-02-23T08:59:07;5.99;88.87
216;HTU21D;70668;48.81286795;9.14184224;2024-02-23T09:01:39;6.06;89.64
216;HTU21D;70668;48.81286795;9.14184224;2024-02-23T09:04:10;6.20;88.85
216;HTU21D;70668;48.81286795;9.14184224;2024-02-23T09:06:38;6.25;90.25
216;HTU21D;70668;48.81286795;9.14184224;2024-02-23T09:09:07;6.13;87.86
216;HTU21D;70668;48.81286795;9.14184224;2024-02-23T09:11:36;6.13;87.36
216;HTU21D;70668;48.81286795;9.14184224;2024-02-23T09:14:04;6.14;85.98
216;HTU21D;70668;48.81286795;9.14184224;2024-02-23T09:16:33;6.16;87.31
216;HTU21D;70668;48.81286795;9.14184224;2024-02-23T09:19:04;6.17;87.23
216;HTU21D;70668;48.81286795;9.14184224;2024-02-23T09:21:32;6.13;86.48
216;HTU21D;70668;48.81286795;9.14184224;2024-02-23T09:24:01;6.19;86.02
216;HTU21D;70668;48.81286795;9.14184224;2024-02-23T09:26:29;6.05;84.34
216;HTU21D;70668;48.81286795;9.14184224;2024-02-23T09:28:58;6.14;85.00
216;HTU21D;70668;48.81286795;9.14184224;2024-02-23T09:31:26;6.11;85.40
216;HTU21D;70668;48.81286795;9.14184224;2024-02-23T09:33:57;6.13;84.44
216;HTU21D;70668;48.81286795;9.14184224;2024-02-23T09:36:28;6.42;84.00
216;HTU21D;70668;48.81286795;9.14184224;2024-02-23T09:38:56;6.07;83.02
216;HTU21D;70668;48.81286795;9.14184224;2024-02-23T09:41:27;6.14;85.63
216;HTU21D;70668;48.81286795;9.14184224;2024-02-23T09:43:58;6.43;83.89
216;HTU21D;70668;48.81286795;9.14184224;2024-02-23T09:46:27;6.27;83.58
216;HTU21D;70668;48.81286795;9.14184224;2024-02-23T09:48:56;6.55;84.26
216;HTU21D;70668;48.81286795;9.14184224;2024-02-23T09:51:28;6.70;84.10
216;HTU21D;70668;48.81286795;9.14184224;2024-02-23T09:53:56;7.00;81.55
216;HTU21D;70668;48.81286795;9.14184224;2024-02-23T09:56:27;6.98;79.62
216;HTU21D;70668;48.81286795;9.14184224;2024-02-23T09:59:00;7.25;82.32
216;HTU21D;70668;48.81286795;9.14184224;2024-02-23T10:01:31;7.40;81.96
216;HTU21D;70668;48.81286795;9.14184224;2024-02-23T10:04:01;7.16;76.82
216;HTU21D;70668;48.81286795;9.14184224;2024-02-23T10:06:32;7.25;79.75
216;HTU21D;70668;48.81286795;9.14184224;2024-02-23T10:09:01;7.73;79.38
216;HTU21D;70668;48.81286795;9.14184224;2024-02-23T10:11:30;7.55;78.92
216;HTU21D;70668;48.81286795;9.14184224;2024-02-23T10:13:59;7.75;79.51
216;HTU21D;70668;48.81286795;9.14184224;2024-02-23T10:16:28;7.76;79.12
216;HTU21D;70668;48.81286795;9.14184224;2024-02-23T10:18:57;7.83;75.55
216;HTU21D;70668;48.81286795;9.14184224;2024-02-23T10:21:26;7.53;77.04
216;HTU21D;70668;48.81286795;9.14184224;2024-02-23T10:23:57;7.86;75.62
216;HTU21D;70668;48.81286795;9.14184224;2024-02-23T10:26:26;7.62;76.53
216;HTU21D;70668;48.81286795;9.14184224;2024-02-23T10:28:55;7.56;77.72
216;HTU21D;70668;48.81286795;9.14184224;2024-02-23T10:31:24;7.63;76.95
216;HTU21D;70668;48.81286795;9.14184224;2024-02-23T10:33:54;7.78;75.11
216;HTU21D;70668;48.81286795;9.14184224;2024-02-23T10:36:28;7.58;76.73
216;HTU21D;70668;48.81286795;9.14184224;2024-02-23T10:39:02;7.73;77.27
216;HTU21D;70668;48.81286795;9.14184224;2024-02-23T10:41:35;7.82;77.18
216;HTU21D;70668;48.81286795;9.14184224;2024-02-23T10:44:03;7.79;75.54
216;HTU21D;70668;48.81286795;9.14184224;2024-02-23T10:46:32;7.84;75.82
216;HTU21D;70668;48.81286795;9.14184224;2024-02-23T10:49:01;7.81;73.32
216;HTU21D;70668;48.81286795;9.14184224;2024-02-23T10:51:33;8.15;74.85
216;HTU21D;70668;48.81286795;9.14184224;2024-02-23T10:54:06;8.02;73.48
216;HTU21D;70668;48.81286795;9.14184224;2024-02-23T10:56:34;7.99;73.54
216;HTU21D;70668;48.81286795;9.14184224;2024-02-23T10:59:03;8.08;73.87
216;HTU21D;70668;48.81286795;9.14184224;2024-02-23T11:01:33;7.73;75.47
216;HTU21D;70668;48.81286795;9.14184224;2024-02-23T11:04:03;7.89;75.37
216;HTU21D;70668;48.81286795;9.14184224;2024-02-23T11:06:33;8.09;73.67
216;HTU21D;70668;48.81286795;9.14184224;2024-02-23T11:09:09;8.16;74.64
216;HTU21D;70668;48.81286795;9.14184224;2024-02-23T11:11:51;8.18;73.72
216;HTU21D;70668;48.81286795;9.14184224;2024-02-23T11:14:29;8.15;73.03
216;HTU21D;70668;48.81286795;9.14184224;2024-02-23T11:16:58;8.36;72.83
216;HTU21D;70668;48.81286795;9.14184224;2024-02-23T11:19:33;8.16;73.35
216;HTU21D;70668;48.81286795;9.14184224;2024-02-23T11:22:03;8.39;73.98
216;HTU21D;70668;48.81286795;9.14184224;2024-02-23T11:24:35;8.18;73.84
216;HTU21D;70668;48.81286795;9.14184224;2024-02-23T11:27:13;7.70;70.26
216;HTU21D;70668;48.81286795;9.14184224;2024-02-23T11:29:44;7.97;72.06
216;HTU21D;70668;48.81286795;9.14184224;2024-02-23T11:32:15;8.18;74.32
216;HTU21D;70668;48.81286795;9.14184224;2024-02-23T11:34:54;8.28;71.70
216;HTU21D;70668;48.81286795;9.14184224;2024-02-23T11:37:24;8.02;70.43
216;HTU21D;70668;48.81286795;9.14184224;2024-02-23T11:39:59;8.57;72.18
216;HTU21D;70668;48.81286795;9.14184224;2024-02-23T11:42:31;8.17;69.11
216;HTU21D;70668;48.81286795;9.14184224;2024-02-23T11:45:01;8.07;70.81
216;HTU21D;70668;48.81286795;9.14184224;2024-02-23T11:47:29;8.39;72.75
216;HTU21D;70668;48.81286795;9.14184224;2024-02-23T11:49:58;8.38;72.97
216;HTU21D;70668;48.81286795;9.14184224;2024-02-23T11:52:26;8.39;71.74
216;HTU21D;70668;48.81286795;9.14184224;2024-02-23T11:54:59;8.17;68.02
216;HTU21D;70668;48.81286795;9.14184224;2024-02-23T11:57:28;7.85;71.39
216;HTU21D;70668;48.81286795;9.14184224;2024-02-23T11:59:56;7.87;70.84
216;HTU21D;70668;48.81286795;9.14184224;2024-02-23T12:02:25;8.14;73.57
216;HTU21D;70668;48.81286795;9.14184224;2024-02-23T12:04:53;8.27;72.66
216;HTU21D;70668;48.81286795;9.14184224;2024-02-23T12:07:22;8.27;72.29
216;HTU21D;70668;48.81286795;9.14184224;2024-02-23T12:09:51;8.15;70.10
216;HTU21D;70668;48.81286795;9.14184224;2024-02-23T12:12:23;8.46;71.23
216;HTU21D;70668;48.81286795;9.14184224;2024-02-23T12:14:52;8.30;70.72
216;HTU21D;70668;48.81286795;9.14184224;2024-02-23T12:17:20;8.72;70.52
216;HTU21D;70668;48.81286795;9.14184224;2024-02-23T12:19:49;8.46;71.13
216;HTU21D;70668;48.81286795;9.14184224;2024-02-23T12:22:18;8.47;69.20
216;HTU21D;70668;48.81286795;9.14184224;2024-02-23T12:24:47;8.51;69.45
216;HTU21D;70668;48.81286795;9.14184224;2024-02-23T12:27:16;8.60;68.90
216;HTU21D;70668;48.81286795;9.14184224;2024-02-23T12:29:54;8.48;69.21
216;HTU21D;70668;48.81286795;9.14184224;2024-02-23T12:32:22;8.39;70.20
216;HTU21D;70668;48.81286795;9.14184224;2024-02-23T12:34:52;8.50;70.45
216;HTU21D;70668;48.81286795;9.14184224;2024-02-23T12:37:21;8.42;68.95
216;HTU21D;70668;48.81286795;9.14184224;2024-02-23T12:39:50;8.56;70.09
216;HTU21D;70668;48.81286795;9.14184224;2024-02-23T12:42:18;8.29;69.46
216;HTU21D;70668;48.81286795;9.14184224;2024-02-23T12:44:47;8.45;69.74
216;HTU21D;70668;48.81286795;9.14184224;2024-02-23T12:47:18;8.83;69.01
216;HTU21D;70668;48.81286795;9.14184224;2024-02-23T12:49:47;8.90;68.25
216;HTU21D;70668;48.81286795;9.14184224;2024-02-23T12:52:15;8.79;67.71
216;HTU21D;70668;48.81286795;9.14184224;2024-02-23T12:54:44;8.63;68.31
216;HTU21D;70668;48.81286795;9.14184224;2024-02-23T12:57:12;8.44;66.72
216;HTU21D;70668;48.81286795;9.14184224;2024-02-23T12:59:41;8.47;69.94
216;HTU21D;70668;48.81286795;9.14184224;2024-02-23T13:02:11;8.53;69.55
216;HTU21D;70668;48.81286795;9.14184224;2024-02-23T13:04:44;8.62;68.51
216;HTU21D;70668;48.81286795;9.14184224;2024-02-23T13:07:14;8.79;67.65
216;HTU21D;70668;48.81286795;9.14184224;2024-02-23T13:09:43;8.68;66.33
216;HTU21D;70668;48.81286795;9.14184224;2024-02-23T13:12:12;8.56;68.15
216;HTU21D;70668;48.81286795;9.14184224;2024-02-23T13:14:40;8.42;66.68
216;HTU21D;70668;48.81286795;9.14184224;2024-02-23T13:17:09;8.85;68.39
216;HTU21D;70668;48.81286795;9.14184224;2024-02-23T13:19:37;8.96;66.66
216;HTU21D;70668;48.81286795;9.14184224;2024-02-23T13:22:09;9.08;69.41
216;HTU21D;70668;48.81286795;9.14184224;2024-02-23T13:24:38;9.05;69.00
216;HTU21D;70668;48.81286795;9.14184224;2024-02-23T13:27:07;9.00;71.33
216;HTU21D;70668;48.81286795;9.14184224;2024-02-23T13:29:36;9.17;67.85
216;HTU21D;70668;48.81286795;9.14184224;2024-02-23T13:32:05;8.90;67.36
216;HTU21D;70668;48.81286795;9.14184224;2024-02-23T13:34:34;8.81;67.97
216;HTU21D;70668;48.81286795;9.14184224;2024-02-23T13:37:03;8.66;68.46
216;HTU21D;70668;48.81286795;9.14184224;2024-02-23T13:39:34;8.81;67.30
216;HTU21D;70668;48.81286795;9.14184224;2024-02-23T13:42:03;8.80;70.37
216;HTU21D;70668;48.81286795;9.14184224;2024-02-23T13:44:34;8.91;68.10
216;HTU21D;70668;48.81286795;9.14184224;2024-02-23T13:47:03;8.98;69.88
216;HTU21D;70668;48.81286795;9.14184224;2024-02-23T13:49:32;8.49;68.93
216;HTU21D;70668;48.81286795;9.14184224;2024-02-23T13:52:01;8.66;70.58
216;HTU21D;70668;48.81286795;9.14184224;2024-02-23T13:54:29;8.78;71.20
216;HTU21D;70668;48.81286795;9.14184224;2024-02-23T13:57:00;8.79;70.94
216;HTU21D;70668;48.81286795;9.14184224;2024-02-23T13:59:29;8.51;72.40